createdAt,value
2023-03-01T00:01:17.819Z,9.386301286557227
2023-03-01T00:04:16.220Z,9.385016745074335
2023-03-01T00:07:15.953Z,9.404284869227649
2023-03-01T00:11:18.390Z,9.391439452670692
2023-03-01T00:14:17.291Z,9.382447662163122
2023-03-01T00:17:16.382Z,9.38052085002746
2023-03-01T00:21:17.305Z,9.391439452670692
2023-03-01T00:24:17.028Z,9.358683648683655
2023-03-01T00:27:16.855Z,9.372171331245863
2023-03-01T00:31:18.725Z,9.373455872546856
2023-03-01T00:34:16.789Z,9.37602495520341
2023-03-01T00:37:16.435Z,9.377951767243577
2023-03-01T00:41:18.444Z,9.427406623614024
2023-03-01T00:44:16.420Z,9.378594037932725
2023-03-01T00:47:16.368Z,9.391439452670692
2023-03-01T00:51:18.764Z,9.421626184464913
2023-03-01T00:54:16.647Z,9.394008535836566
2023-03-01T00:57:16.482Z,9.369602248698447
2023-03-01T01:01:20.632Z,9.361895001492758
2023-03-01T01:04:16.136Z,9.319505153566661
2023-03-01T01:07:17.802Z,9.336204182203165
2023-03-01T01:11:17.038Z,9.262343117274941
2023-03-01T01:14:18.262Z,9.239221404961791
2023-03-01T01:17:16.558Z,9.248213181272149
2023-03-01T01:21:20.509Z,9.218668776742197
2023-03-01T01:24:17.213Z,9.170498572599262
2023-03-01T01:27:16.421Z,9.203896578085642
2023-03-01T01:31:17.340Z,9.176921265007058
2023-03-01T01:34:18.700Z,9.137100579409253
2023-03-01T01:37:16.664Z,9.09856444870029
2023-03-01T01:41:17.629Z,9.136458310429953
2023-03-01T01:44:19.873Z,9.079296389484899
2023-03-01T01:47:18.586Z,9.069662361411975
2023-03-01T01:51:20.242Z,9.083150001000558
2023-03-01T01:54:22.083Z,9.094068567850627
2023-03-01T01:57:22.192Z,9.076727315232073
2023-03-01T02:01:16.637Z,9.065808750469296
2023-03-01T02:04:16.827Z,9.009289142118359
2023-03-01T02:07:19.546Z,9.005435533740457
2023-03-01T02:11:18.582Z,9.034979868821392
2023-03-01T02:14:16.964Z,9.015711823111996
2023-03-01T02:17:18.465Z,8.982956154798831
2023-03-01T02:21:29.626Z,9.013785018766157
2023-03-01T02:24:25.840Z,8.991305637755431
2023-03-01T02:27:20.066Z,8.972037601322882
2023-03-01T02:31:55.280Z,8.997086049483277
2023-03-01T02:34:19.767Z,9.017638627498764
2023-03-01T02:37:17.836Z,8.992590173663121
2023-03-01T02:41:19.002Z,8.995159245533069
2023-03-01T02:44:16.564Z,8.957265442829613
2023-03-01T02:47:16.278Z,8.939924216363579
2023-03-01T02:51:27.663Z,8.94891596300622
2023-03-01T02:54:25.576Z,8.888542824075557
2023-03-01T02:57:17.704Z,8.903957238706061
2023-03-01T03:01:17.068Z,8.896250031063392
2023-03-01T03:04:19.480Z,8.912948981783483
2023-03-01T03:07:15.851Z,8.887258289641249
2023-03-01T03:11:16.236Z,8.873128412064398
2023-03-01T03:14:17.327Z,8.888542824075557
2023-03-01T03:17:16.599Z,8.90845311013336
2023-03-01T03:21:16.260Z,8.877624281963744
2023-03-01T03:24:16.455Z,8.886616022430918
2023-03-01T03:27:16.244Z,8.850649065910057
2023-03-01T03:31:16.101Z,8.821747057611356
2023-03-01T03:34:19.228Z,8.857714002672584
2023-03-01T03:38:06.614Z,8.837161460891366
2023-03-01T03:41:17.269Z,8.789633725857493
2023-03-01T03:44:16.835Z,8.77678839633918
2023-03-01T03:47:16.590Z,8.788991459338376
2023-03-01T03:51:17.573Z,8.76779666675866
2023-03-01T03:54:16.116Z,8.742748281912736
2023-03-01T03:57:15.955Z,8.666960903220115
2023-03-01T04:01:15.946Z,8.648977466723682
2023-03-01T04:04:18.791Z,8.609157012883315
2023-03-01T04:07:16.128Z,8.579612816491226
2023-03-01T04:11:32.612Z,8.535296539945193
2023-03-01T04:14:16.463Z,8.508963690223117
2023-03-01T04:17:16.771Z,8.449875372326733
2023-03-01T04:21:15.585Z,8.433818770853396
2023-03-01T04:24:16.030Z,8.43767235494779
2023-03-01T04:27:16.004Z,8.443452731396338
2023-03-01T04:31:18.703Z,8.440883675151508
2023-03-01T04:34:15.897Z,8.33940601167933
2023-03-01T04:37:16.942Z,8.356747123344395
2023-03-01T04:41:18.493Z,8.350966752421026
2023-03-01T04:44:16.507Z,8.354820332995677
2023-03-01T04:47:16.643Z,8.383079928878669
2023-03-01T04:51:17.201Z,8.379868610721314
2023-03-01T04:54:17.247Z,8.298301167641421
2023-03-01T04:57:18.500Z,8.332983378570589
2023-03-01T05:01:20.225Z,8.291236274448238
2023-03-01T05:04:16.314Z,8.31114642940238
2023-03-01T05:07:20.538Z,8.294447589467836
2023-03-01T05:11:16.060Z,8.277748752607385
2023-03-01T05:14:16.476Z,8.295089852485399
2023-03-01T05:17:16.326Z,8.258480867742128
2023-03-01T05:21:17.505Z,8.298943430686268
2023-03-01T05:24:16.226Z,8.250773714941989
2023-03-01T05:27:16.534Z,8.284171381805299
2023-03-01T05:31:17.144Z,8.246920138787482
2023-03-01T05:34:16.925Z,8.206457599049099
2023-03-01T05:37:16.869Z,8.196181401354625
2023-03-01T05:41:17.108Z,8.21352248563935
2023-03-01T05:44:17.539Z,8.209026648654618
2023-03-01T05:47:17.268Z,8.239855249596076
2023-03-01T05:51:16.588Z,8.216091535444956
2023-03-01T05:54:18.114Z,8.170490912211609
2023-03-01T05:57:16.863Z,8.208384386246417
2023-03-01T06:01:15.917Z,8.18269389364732
2023-03-01T06:04:16.486Z,8.151223050129193
2023-03-01T06:07:16.446Z,8.156361146284326
2023-03-01T06:11:16.479Z,8.158287932417533
2023-03-01T06:14:16.624Z,8.157003408324181
2023-03-01T06:17:16.780Z,8.136451025304359
2023-03-01T06:21:15.872Z,8.137735549106674
2023-03-01T06:24:16.186Z,8.136451025304359
2023-03-01T06:27:16.231Z,8.147369478203837
2023-03-01T06:31:17.235Z,8.162141504806732
2023-03-01T06:34:17.064Z,8.16085698065881
2023-03-01T06:37:17.181Z,8.134524239634993
2023-03-01T06:41:16.700Z,8.157003408324181
2023-03-01T06:44:17.063Z,8.139020072927178
2023-03-01T06:47:17.093Z,8.082501042032618
2023-03-01T06:51:16.081Z,8.115898646941151
2023-03-01T06:54:16.622Z,8.131312930277
2023-03-01T06:57:16.436Z,8.137735549106674
2023-03-01T07:01:16.633Z,8.159572456529077
2023-03-01T07:04:17.128Z,8.187831991585062
2023-03-01T07:07:17.539Z,8.186547467073343
2023-03-01T07:11:16.594Z,8.212880223199317
2023-03-01T07:14:16.907Z,8.231505835806548
2023-03-01T07:17:16.777Z,8.238570724347664
2023-03-01T07:21:16.473Z,8.282244592998177
2023-03-01T07:24:16.689Z,8.323991692982327
2023-03-01T07:27:16.823Z,8.363812021639841
2023-03-01T07:31:16.238Z,8.430607450899789
2023-03-01T07:34:16.754Z,8.448590844104274
2023-03-01T07:37:16.514Z,8.428038395018756
2023-03-01T07:41:17.091Z,8.479419526463698
2023-03-01T07:44:18.579Z,8.501256516140803
2023-03-01T07:47:17.292Z,8.493549342713322
2023-03-01T07:51:17.363Z,8.501256516140803
2023-03-01T07:54:16.906Z,8.541719187378476
2023-03-01T07:57:17.059Z,8.558418072833229
2023-03-01T08:01:18.874Z,8.630351768396576
2023-03-01T08:04:16.737Z,8.65411559107315
2023-03-01T08:07:16.874Z,8.685586609064194
2023-03-01T08:11:16.987Z,8.789633725857493
2023-03-01T08:14:17.244Z,8.84294186279667
2023-03-01T08:17:16.858Z,8.91423351658159
2023-03-01T08:21:18.028Z,9.006720069848233
2023-03-01T08:24:16.802Z,9.084434538208825
2023-03-01T08:27:17.513Z,9.1685717649656
2023-03-01T08:31:20.408Z,9.286749375554791
2023-03-01T08:41:17.266Z,9.48649557826584
2023-03-01T08:44:18.031Z,9.543657755806635
2023-03-01T08:47:18.061Z,9.598250880344949
2023-03-01T08:51:18.209Z,9.717713596885824
2023-03-01T08:54:18.773Z,9.817265980848243
2023-03-01T08:57:16.492Z,9.882135657574782
2023-03-01T09:01:18.357Z,9.979761397116908
2023-03-01T09:04:16.502Z,10.003525573300431
2023-03-01T09:07:16.252Z,10.038208436200875
2023-03-01T09:11:20.029Z,10.172444086110863
2023-03-01T09:14:17.223Z,10.194923759819721
2023-03-01T09:17:17.136Z,10.25786687584041
2023-03-01T09:21:24.875Z,10.309249043745513
2023-03-01T09:24:16.947Z,10.370907683648692
2023-03-01T09:27:20.035Z,10.392102850794709
2023-03-01T09:31:18.518Z,10.419078525233726
2023-03-01T09:34:17.256Z,10.419078525233726
2023-03-01T09:37:16.630Z,10.43770459083753
2023-03-01T09:41:32.106Z,10.409444354870356
2023-03-01T09:44:28.904Z,10.446696485946086
2023-03-01T09:47:20.632Z,10.531477255074787
2023-03-01T09:51:20.004Z,10.686266590983086
2023-03-01T09:54:16.670Z,10.7537060108094
2023-03-01T09:57:22.900Z,10.844909877371174
2023-03-01T10:01:29.113Z,10.967585645320742
2023-03-01T10:04:28.503Z,11.082554185768823
2023-03-01T10:07:27.388Z,11.171831532765736
2023-03-01T10:11:22.627Z,11.23605989430007
2023-03-01T10:14:32.902Z,11.315703125757954
2023-03-01T10:17:25.501Z,11.374793310410405
2023-03-01T10:21:19.126Z,11.408192127457095
2023-03-01T10:24:19.229Z,11.399842422042639
2023-03-01T10:27:22.641Z,11.376720164905782
2023-03-01T10:31:20.538Z,11.36580132330646
2023-03-01T10:34:18.536Z,11.169904682622292
2023-03-01T10:37:18.651Z,10.94703262550911
2023-03-01T10:41:16.118Z,10.932902427089811
2023-03-01T10:44:36.838Z,10.858397780913311
2023-03-01T10:47:20.157Z,10.812153548546576
2023-03-01T10:51:18.721Z,10.877023936720798
2023-03-01T10:54:19.819Z,10.950886316369088
2023-03-01T10:57:30.134Z,10.878950780643299
2023-03-01T11:01:34.531Z,10.9039997553602
2023-03-01T11:04:17.913Z,10.880877624606729
2023-03-01T11:07:16.464Z,10.884731312656367
2023-03-01T11:11:22.124Z,10.965658799515586
2023-03-01T11:14:25.980Z,11.08705016517133
2023-03-01T11:17:21.770Z,11.12815627289756
2023-03-01T11:21:17.148Z,11.232206191325622
2023-03-01T11:24:19.153Z,11.305426575834371
2023-03-01T11:27:22.798Z,11.315703125757954
2023-03-01T11:31:19.216Z,11.373508740769557
2023-03-01T11:34:25.769Z,11.415899548521793
2023-03-01T11:37:30.098Z,11.479485797291636
2023-03-01T11:41:20.301Z,11.568763534925619
2023-03-01T11:44:20.278Z,11.665106515830939
2023-03-01T11:47:30.157Z,11.740254111966351
2023-03-01T11:51:24.597Z,11.769157050132435
2023-03-01T11:54:38.887Z,11.780718227977285
2023-03-01T11:57:42.398Z,11.778149077217767
2023-03-01T12:01:28.993Z,11.812832618610354
2023-03-01T12:04:47.815Z,11.790994831742955
2023-03-01T12:07:24.292Z,11.749246136186775
2023-03-01T12:11:29.251Z,11.733188950704152
2023-03-01T12:14:33.534Z,11.737684962352796
2023-03-01T12:18:02.818Z,11.722270066199417
2023-03-01T12:21:28.255Z,11.72676607730691
2023-03-01T12:24:40.153Z,11.732546663343964
2023-03-01T12:27:37.356Z,11.735758100190377
2023-03-01T12:31:37.304Z,11.832101258447164
2023-03-01T12:35:04.348Z,11.869353973736816
2023-03-01T12:37:25.812Z,11.90853357011547
2023-03-01T12:42:01.846Z,11.97147787513677
2023-03-01T12:44:39.555Z,12.045341145907969
2023-03-01T12:47:32.159Z,12.080667079275372
2023-03-01T12:51:20.729Z,12.150034406641861
2023-03-01T12:54:26.169Z,12.223897822795788
2023-03-01T12:57:21.484Z,12.369055668030432
2023-03-01T13:01:26.700Z,12.557889672714463
2023-03-01T13:04:26.338Z,12.692129051129815
2023-03-01T13:07:25.305Z,12.791684699291455
2023-03-01T13:11:20.004Z,12.988227138344609
2023-03-01T13:14:49.163Z,13.108978913373813
2023-03-01T13:17:41.441Z,13.207250423381629
2023-03-01T13:21:30.197Z,13.383882490034102
2023-03-01T13:24:25.859Z,13.407005258761728
2023-03-01T13:27:24.388Z,13.510415491020831
2023-03-01T13:31:58.946Z,13.70310567925335
2023-03-01T13:34:42.841Z,13.780824171000223
2023-03-01T13:37:24.726Z,13.830923729898586
2023-03-01T13:41:47.653Z,13.909284633911103
2023-03-01T13:44:25.198Z,13.97929566277926
2023-03-01T13:47:18.974Z,14.065364341113309
2023-03-01T13:51:16.370Z,14.188044464060022
2023-03-01T13:54:25.372Z,14.255486487133021
2023-03-01T13:57:25.033Z,14.321643948955261
2023-03-01T14:01:24.593Z,14.438543659628431
2023-03-01T14:04:22.236Z,14.509197403946837
2023-03-01T14:07:19.984Z,14.586274278685687
2023-03-01T14:11:55.286Z,14.68904354686756
2023-03-01T14:14:38.082Z,14.809797585738215
2023-03-01T14:17:39.095Z,14.869532355875709
2023-03-01T14:21:17.405Z,14.941471055988222
2023-03-01T14:24:23.466Z,15.076356272449265
2023-03-01T14:27:17.905Z,15.164352926517404
2023-03-01T14:31:47.020Z,15.269049786703908
2023-03-01T14:34:20.998Z,15.36475438423231
2023-03-01T14:37:21.358Z,15.371819828320076
2023-03-01T14:41:20.291Z,15.357046627673208
2023-03-01T14:44:21.785Z,15.401366236830654
2023-03-01T14:47:25.603Z,15.442474299461173
2023-03-01T14:51:16.280Z,15.496428659930825
2023-03-01T14:54:24.028Z,15.59277581200622
2023-03-01T14:57:19.501Z,15.560660083279071
2023-03-01T15:01:18.391Z,15.56644091361095
2023-03-01T15:04:18.594Z,15.570294800703504
2023-03-01T15:07:17.879Z,15.578644889965654
2023-03-01T15:11:20.810Z,15.509274940962495
2023-03-01T15:15:01.443Z,15.51890965292996
2023-03-01T15:17:26.778Z,15.466239906666397
2023-03-01T15:21:18.981Z,15.41485481782811
2023-03-01T15:24:24.885Z,15.33456567478279
2023-03-01T15:27:18.511Z,15.204176257871676
2023-03-01T15:31:21.464Z,15.046167658965079
2023-03-01T15:34:24.125Z,14.996067428968763
2023-03-01T15:37:40.384Z,14.786032150491156
2023-03-01T15:41:26.405Z,14.642155053819078
2023-03-01T15:44:18.416Z,14.620316585876571
2023-03-01T15:47:29.070Z,14.572143513414721
2023-03-01T15:51:16.758Z,14.428266755947789
2023-03-01T15:54:20.636Z,14.15400231907297
2023-03-01T15:57:16.419Z,14.193825206930342
2023-03-01T16:01:18.118Z,14.108398710900747
2023-03-01T16:04:22.520Z,14.056372087318232
2023-03-01T16:07:17.800Z,13.95039202045964
2023-03-01T16:11:18.744Z,13.82771221888288
2023-03-01T16:14:17.858Z,13.782751076600107
2023-03-01T16:17:17.025Z,13.642087075365362
2023-03-01T16:21:21.724Z,13.521976890773294
2023-03-01T16:24:17.156Z,13.420493543241173
2023-03-01T16:27:17.069Z,13.367182716284969
2023-03-01T16:31:19.269Z,13.298456756674932
2023-03-01T16:34:17.073Z,13.23936531901163
2023-03-01T16:37:17.248Z,13.174493241551044
2023-03-01T16:41:18.645Z,13.069156501718771
2023-03-01T16:44:16.895Z,13.027407217946893
2023-03-01T16:47:16.922Z,12.99786158257957
2023-03-01T16:51:17.898Z,12.957396923668512
2023-03-01T16:54:17.756Z,12.872613887333227
2023-03-01T16:57:18.089Z,12.768562087397095
2023-03-01T17:01:20.984Z,12.651022234725314
2023-03-01T17:04:19.406Z,12.601565620924612
2023-03-01T17:07:23.946Z,12.552109034085879
2023-03-01T17:11:21.231Z,12.447415309336884
2023-03-01T17:14:19.498Z,12.345290872158149
2023-03-01T17:17:20.088Z,12.288769220500035
2023-03-01T17:21:18.217Z,12.271427357164885
2023-03-01T17:24:16.872Z,12.184718090215757
2023-03-01T17:27:25.672Z,12.126269668145051
2023-03-01T17:31:16.109Z,12.052406331480961
2023-03-01T17:34:17.898Z,12.007446069043363
2023-03-01T17:37:18.327Z,11.890549490988269
2023-03-01T17:41:19.064Z,11.844947020612107
2023-03-01T17:44:16.952Z,11.740254111966351
2023-03-01T17:47:18.500Z,11.696578578431218
2023-03-01T17:51:18.490Z,11.59573955926544
2023-03-01T17:54:17.012Z,11.58032468723186
2023-03-01T17:57:19.634Z,11.453152092899199
2023-03-01T18:01:22.215Z,11.442875527405068
2023-03-01T18:04:21.709Z,11.341394505660082
2023-03-01T18:07:19.080Z,11.26560495587628
2023-03-01T18:11:17.403Z,11.149993900203208
2023-03-01T18:14:19.397Z,11.049797771133399
2023-03-01T18:17:17.023Z,10.97978900303715
2023-03-01T18:21:17.547Z,10.923268202156759
2023-03-01T18:24:17.544Z,10.931617863706288
2023-03-01T18:27:16.500Z,10.853901812843105
2023-03-01T18:31:20.775Z,10.761413376267592
2023-03-01T18:34:16.927Z,10.665071355106557
2023-03-01T18:37:16.889Z,10.639380166744013
2023-03-01T18:41:16.642Z,10.537257764946208
2023-03-01T18:44:17.150Z,10.464680278837113
2023-03-01T18:47:17.252Z,10.309891321028498
2023-03-01T18:51:18.008Z,10.336224693546319
2023-03-01T18:54:16.469Z,10.207127013594526
2023-03-01T18:57:18.568Z,10.17565546772821
2023-03-01T19:01:22.741Z,10.083809998341986
2023-03-01T19:04:18.719Z,9.969484998533243
2023-03-01T19:07:19.131Z,9.916176199563779
2023-03-01T19:11:18.417Z,9.838461018636826
2023-03-01T19:14:19.223Z,9.76459954475431
2023-03-01T19:17:17.149Z,9.688811312328108
2023-03-01T19:21:17.690Z,9.634218133288323
2023-03-01T19:24:17.056Z,9.514755526705358
2023-03-01T19:27:16.455Z,9.51604007002543
2023-03-01T19:31:19.205Z,9.423552997473688
2023-03-01T19:34:17.127Z,9.475576964181164
2023-03-01T19:37:17.071Z,9.361252730921843
2023-03-01T19:41:17.594Z,9.329781478517635
2023-03-01T19:44:17.145Z,9.186555304471403
2023-03-01T19:47:17.185Z,9.120401587425386
2023-03-01T19:51:16.289Z,9.095353105213508
2023-03-01T19:54:20.527Z,9.048467503253141
2023-03-01T19:57:16.631Z,9.013785018766157
2023-03-01T20:01:19.592Z,8.898176832912668
2023-03-01T20:04:17.368Z,8.83973052835936
2023-03-01T20:07:18.009Z,8.819820257385526
2023-03-01T20:11:18.032Z,8.768438933127708
2023-03-01T20:14:17.565Z,8.687513406438757
2023-03-01T20:17:16.927Z,8.618148726738672
2023-03-01T20:21:24.667Z,8.571263371428723
2023-03-01T20:24:17.835Z,8.548141835266506
2023-03-01T20:27:17.092Z,8.455013485398467
2023-03-01T20:31:18.648Z,8.40620142296766
2023-03-01T20:34:16.804Z,8.345186381866005
2023-03-01T20:37:17.134Z,8.319495850522435
2023-03-01T20:41:16.268Z,8.321422640120819
2023-03-01T20:44:16.851Z,8.302154745978715
2023-03-01T20:47:16.999Z,8.214164748083931
2023-03-01T20:51:16.901Z,8.14480043034455
2023-03-01T20:54:16.748Z,8.113329599973166
2023-03-01T20:57:16.755Z,8.054883801108009
2023-03-01T21:01:19.458Z,8.093419488438304
2023-03-01T21:04:18.937Z,8.017632652250176
2023-03-01T21:07:17.457Z,7.986804126833158
2023-03-01T21:11:18.748Z,7.909732859129145
2023-03-01T21:14:16.887Z,7.887896011851626
2023-03-01T21:17:17.079Z,7.822385501560348
2023-03-01T21:21:19.344Z,7.731184673856842
2023-03-01T21:24:16.556Z,7.684299776991338
2023-03-01T21:27:17.547Z,7.678519448918815
2023-03-01T21:31:18.798Z,7.540433943356129
2023-03-01T21:34:16.921Z,7.527588790734535
2023-03-01T21:37:17.319Z,7.383080949081341
2023-03-01T21:41:19.869Z,7.334911719689353
2023-03-01T21:44:17.221Z,7.37152033169441
2023-03-01T21:47:17.372Z,7.319497571686315
2023-03-01T21:51:19.453Z,7.235362060004627
2023-03-01T21:54:18.989Z,7.194899971489304
2023-03-01T21:57:17.997Z,7.154437901022902
2023-03-01T22:01:18.457Z,7.142235057916787
2023-03-01T22:04:17.386Z,7.018922209168613
2023-03-01T22:07:16.338Z,6.9803869783137085
2023-03-01T22:11:17.648Z,6.86285462531705
2023-03-01T22:14:18.232Z,6.850009568647147
2023-03-01T22:17:16.190Z,6.777435032634185
2023-03-01T22:21:17.143Z,6.749175936973279
2023-03-01T22:24:18.222Z,6.736973148386824
2023-03-01T22:27:16.788Z,6.763305483703244
2023-03-01T22:31:16.843Z,6.7549562058240555
2023-03-01T22:34:19.300Z,6.7504604411305085
2023-03-01T22:37:17.171Z,6.790280079026798
2023-03-01T22:41:16.094Z,6.839733524620897
2023-03-01T22:44:19.923Z,6.858358855275673
2023-03-01T22:47:16.555Z,6.850009568647147
2023-03-01T22:51:18.933Z,6.9360714830690995
2023-03-01T22:54:18.125Z,6.944420777619325
2023-03-01T22:57:16.544Z,6.923868669339663
2023-03-01T23:01:19.402Z,6.952127819424732
2023-03-01T23:04:18.824Z,6.991305292060497
2023-03-01T23:07:16.742Z,6.993874307250735
2023-03-01T23:11:17.739Z,7.036905322503389
2023-03-01T23:14:16.739Z,7.045254626335009
2023-03-01T23:17:16.916Z,7.0690180337544914
2023-03-01T23:21:18.208Z,7.053603930935151
2023-03-01T23:24:19.467Z,7.109480066117612
2023-03-01T23:27:17.205Z,7.133243490362747
2023-03-01T23:31:16.236Z,7.142877312776181
2023-03-01T23:34:16.488Z,7.1499421165296555
2023-03-01T23:37:16.332Z,7.178843592160047
2023-03-01T23:41:18.658Z,7.1679252558396005
2023-03-01T23:44:20.156Z,7.180770357529491
2023-03-01T23:47:17.069Z,7.161502705676776
2023-03-01T23:51:17.395Z,7.170494276032059
2023-03-01T23:54:18.630Z,7.202607034576886
2023-03-01T23:57:16.580Z,7.21737890732511
